sensor_id;sensor_type;location;lat;lon;timestamp;pressure;altitude;pressure_sealevel;temperature;humidity
16355;BME280;8287;51.644;8.494;2023-03-03T00:02:05;101175.03;;;1.97;87.80
16355;BME280;8287;51.644;8.494;2023-03-03T00:04:35;101169.00;;;1.97;88.07
16355;BME280;8287;51.644;8.494;2023-03-03T00:07:02;101167.75;;;1.99;87.96
16355;BME280;8287;51.644;8.494;2023-03-03T00:09:31;101168.31;;;2.01;88.71
16355;BME280;8287;51.644;8.494;2023-03-03T00:11:59;101174.00;;;2.10;88.87
16355;BME280;8287;51.644;8.494;2023-03-03T00:14:29;101159.91;;;2.11;88.93
16355;BME280;8287;51.644;8.494;2023-03-03T00:17:00;101162.53;;;2.22;89.04
16355;BME280;8287;51.644;8.494;2023-03-03T00:19:37;101163.09;;;2.24;88.86
16355;BME280;8287;51.644;8.494;2023-03-03T00:22:13;101162.84;;;2.26;88.80
16355;BME280;8287;51.644;8.494;2023-03-03T00:24:42;101159.44;;;2.14;89.14
16355;BME280;8287;51.644;8.494;2023-03-03T00:27:29;101158.06;;;2.23;89.85
16355;BME280;8287;51.644;8.494;2023-03-03T00:29:57;101155.47;;;2.23;89.52
16355;BME280;8287;51.644;8.494;2023-03-03T00:32:26;101158.41;;;2.26;89.44
16355;BME280;8287;51.644;8.494;2023-03-03T00:35:01;101164.75;;;2.30;89.69
16355;BME280;8287;51.644;8.494;2023-03-03T00:37:42;101154.78;;;2.27;89.68
16355;BME280;8287;51.644;8.494;2023-03-03T00:40:19;101148.84;;;2.32;89.95
16355;BME280;8287;51.644;8.494;2023-03-03T00:42:49;101146.09;;;2.38;89.42
16355;BME280;8287;51.644;8.494;2023-03-03T00:45:27;101146.59;;;2.35;89.43
16355;BME280;8287;51.644;8.494;2023-03-03T00:47:54;101154.56;;;2.29;89.75
16355;BME280;8287;51.644;8.494;2023-03-03T00:50:30;101160.22;;;2.37;89.65
16355;BME280;8287;51.644;8.494;2023-03-03T00:53:03;101165.22;;;2.39;89.61
16355;BME280;8287;51.644;8.494;2023-03-03T00:55:31;101171.47;;;2.38;89.63
16355;BME280;8287;51.644;8.494;2023-03-03T00:57:59;101170.66;;;2.49;89.50
16355;BME280;8287;51.644;8.494;2023-03-03T01:00:26;101171.56;;;2.54;89.20
16355;BME280;8287;51.644;8.494;2023-03-03T01:02:53;101164.16;;;2.63;89.33
16355;BME280;8287;51.644;8.494;2023-03-03T01:05:20;101155.59;;;2.67;88.62
16355;BME280;8287;51.644;8.494;2023-03-03T01:07:47;101154.91;;;2.72;88.78
16355;BME280;8287;51.644;8.494;2023-03-03T01:10:14;101149.34;;;2.68;87.97
16355;BME280;8287;51.644;8.494;2023-03-03T01:12:41;101153.31;;;2.71;88.51
16355;BME280;8287;51.644;8.494;2023-03-03T01:15:10;101150.78;;;2.76;88.45
16355;BME280;8287;51.644;8.494;2023-03-03T01:17:38;101163.34;;;2.62;88.35
16355;BME280;8287;51.644;8.494;2023-03-03T01:20:07;101158.44;;;2.66;88.51
16355;BME280;8287;51.644;8.494;2023-03-03T01:22:34;101157.16;;;2.80;87.87
16355;BME280;8287;51.644;8.494;2023-03-03T01:25:02;101153.75;;;2.79;88.00
16355;BME280;8287;51.644;8.494;2023-03-03T01:27:29;101148.88;;;2.71;88.08
16355;BME280;8287;51.644;8.494;2023-03-03T01:29:56;101151.06;;;2.63;87.86
16355;BME280;8287;51.644;8.494;2023-03-03T01:32:24;101145.63;;;2.64;88.57
16355;BME280;8287;51.644;8.494;2023-03-03T01:34:52;101140.91;;;2.78;88.35
16355;BME280;8287;51.644;8.494;2023-03-03T01:37:19;101142.34;;;2.85;88.00
16355;BME280;8287;51.644;8.494;2023-03-03T01:39:48;101126.34;;;2.70;87.64
16355;BME280;8287;51.644;8.494;2023-03-03T01:42:14;101130.19;;;2.79;88.16
16355;BME280;8287;51.644;8.494;2023-03-03T01:44:41;101134.66;;;2.79;87.82
16355;BME280;8287;51.644;8.494;2023-03-03T01:47:10;101130.19;;;2.79;87.74
16355;BME280;8287;51.644;8.494;2023-03-03T01:49:44;101126.53;;;2.80;87.50
16355;BME280;8287;51.644;8.494;2023-03-03T01:52:19;101126.34;;;2.70;87.84
16355;BME280;8287;51.644;8.494;2023-03-03T01:54:51;101144.50;;;2.49;88.71
16355;BME280;8287;51.644;8.494;2023-03-03T01:57:23;101149.16;;;2.58;89.36
16355;BME280;8287;51.644;8.494;2023-03-03T01:59:52;101161.84;;;2.78;88.93
16355;BME280;8287;51.644;8.494;2023-03-03T02:02:21;101162.78;;;2.60;88.51
16355;BME280;8287;51.644;8.494;2023-03-03T02:04:49;101162.13;;;2.53;88.64
16355;BME280;8287;51.644;8.494;2023-03-03T02:07:17;101155.84;;;2.54;89.59
16355;BME280;8287;51.644;8.494;2023-03-03T02:09:53;101167.53;;;2.75;89.39
16355;BME280;8287;51.644;8.494;2023-03-03T02:12:25;101164.00;;;2.69;88.74
16355;BME280;8287;51.644;8.494;2023-03-03T02:14:54;101168.13;;;2.65;89.03
16355;BME280;8287;51.644;8.494;2023-03-03T02:17:21;101162.53;;;2.73;89.08
16355;BME280;8287;51.644;8.494;2023-03-03T02:19:53;101158.97;;;2.79;88.73
16355;BME280;8287;51.644;8.494;2023-03-03T02:22:32;101151.22;;;2.84;88.45
16355;BME280;8287;51.644;8.494;2023-03-03T02:25:01;101162.19;;;2.81;88.52
16355;BME280;8287;51.644;8.494;2023-03-03T02:27:31;101146.06;;;2.89;88.38
16355;BME280;8287;51.644;8.494;2023-03-03T02:30:07;101150.16;;;2.97;88.33
16355;BME280;8287;51.644;8.494;2023-03-03T02:32:34;101146.94;;;3.06;88.20
16355;BME280;8287;51.644;8.494;2023-03-03T02:35:25;101152.56;;;3.14;87.50
16355;BME280;8287;51.644;8.494;2023-03-03T02:37:54;101154.16;;;3.15;86.65
16355;BME280;8287;51.644;8.494;2023-03-03T02:40:24;101169.88;;;3.15;86.50
16355;BME280;8287;51.644;8.494;2023-03-03T02:42:54;101162.50;;;3.13;86.39
16355;BME280;8287;51.644;8.494;2023-03-03T02:45:23;101160.91;;;3.12;86.90
16355;BME280;8287;51.644;8.494;2023-03-03T02:47:50;101159.63;;;3.14;87.29
16355;BME280;8287;51.644;8.494;2023-03-03T02:50:17;101143.38;;;3.12;86.98
16355;BME280;8287;51.644;8.494;2023-03-03T02:52:44;101149.22;;;3.03;87.06
16355;BME280;8287;51.644;8.494;2023-03-03T02:55:10;101159.25;;;2.94;87.78
16355;BME280;8287;51.644;8.494;2023-03-03T02:57:37;101157.53;;;3.00;87.56
16355;BME280;8287;51.644;8.494;2023-03-03T03:00:06;101151.69;;;3.09;87.59
16355;BME280;8287;51.644;8.494;2023-03-03T03:02:33;101148.22;;;3.20;87.51
16355;BME280;8287;51.644;8.494;2023-03-03T03:05:00;101159.25;;;3.22;87.42
16355;BME280;8287;51.644;8.494;2023-03-03T03:07:27;101148.78;;;3.22;87.08
16355;BME280;8287;51.644;8.494;2023-03-03T03:09:53;101157.28;;;3.29;86.59
16355;BME280;8287;51.644;8.494;2023-03-03T03:12:20;101166.72;;;3.30;86.29
16355;BME280;8287;51.644;8.494;2023-03-03T03:14:47;101165.13;;;3.29;86.09
16355;BME280;8287;51.644;8.494;2023-03-03T03:17:15;101167.19;;;3.27;86.39
16355;BME280;8287;51.644;8.494;2023-03-03T03:19:41;101166.22;;;3.16;86.88
16355;BME280;8287;51.644;8.494;2023-03-03T03:22:08;101170.91;;;3.14;87.05
16355;BME280;8287;51.644;8.494;2023-03-03T03:24:35;101159.03;;;3.23;86.97
16355;BME280;8287;51.644;8.494;2023-03-03T03:27:01;101161.16;;;3.26;86.55
16355;BME280;8287;51.644;8.494;2023-03-03T03:29:28;101163.31;;;3.29;86.96
16355;BME280;8287;51.644;8.494;2023-03-03T03:31:55;101161.03;;;3.33;86.72
16355;BME280;8287;51.644;8.494;2023-03-03T03:34:23;101161.47;;;3.30;86.93
16355;BME280;8287;51.644;8.494;2023-03-03T03:36:49;101166.59;;;3.36;86.19
16355;BME280;8287;51.644;8.494;2023-03-03T03:39:16;101162.50;;;3.29;86.64
16355;BME280;8287;51.644;8.494;2023-03-03T03:41:43;101166.09;;;3.23;86.21
16355;BME280;8287;51.644;8.494;2023-03-03T03:44:09;101164.97;;;3.19;87.26
16355;BME280;8287;51.644;8.494;2023-03-03T03:46:36;101168.56;;;3.29;86.33
16355;BME280;8287;51.644;8.494;2023-03-03T03:49:03;101167.69;;;3.24;85.99
16355;BME280;8287;51.644;8.494;2023-03-03T03:51:31;101175.09;;;3.15;86.49
16355;BME280;8287;51.644;8.494;2023-03-03T03:53:59;101176.56;;;3.23;86.48
16355;BME280;8287;51.644;8.494;2023-03-03T03:56:26;101170.31;;;3.24;86.49
16355;BME280;8287;51.644;8.494;2023-03-03T03:58:53;101167.97;;;3.11;86.76
16355;BME280;8287;51.644;8.494;2023-03-03T04:01:19;101169.72;;;3.22;86.69
16355;BME280;8287;51.644;8.494;2023-03-03T04:03:46;101163.84;;;3.15;86.41
16355;BME280;8287;51.644;8.494;2023-03-03T04:06:13;101173.19;;;3.11;86.74
16355;BME280;8287;51.644;8.494;2023-03-03T04:08:41;101172.09;;;3.07;87.14
16355;BME280;8287;51.644;8.494;2023-03-03T04:11:08;101164.63;;;3.15;86.95
16355;BME280;8287;51.644;8.494;2023-03-03T04:13:35;101170.19;;;3.19;86.80
16355;BME280;8287;51.644;8.494;2023-03-03T04:16:02;101162.44;;;3.24;86.81
16355;BME280;8287;51.644;8.494;2023-03-03T04:18:28;101168.16;;;2.93;87.07
16355;BME280;8287;51.644;8.494;2023-03-03T04:20:55;101162.06;;;3.04;87.78
16355;BME280;8287;51.644;8.494;2023-03-03T04:23:22;101155.69;;;3.12;87.73
16355;BME280;8287;51.644;8.494;2023-03-03T04:25:50;101149.44;;;3.01;87.49
16355;BME280;8287;51.644;8.494;2023-03-03T04:28:17;101147.44;;;2.92;88.22
16355;BME280;8287;51.644;8.494;2023-03-03T04:30:43;101151.41;;;2.94;88.19
16355;BME280;8287;51.644;8.494;2023-03-03T04:33:10;101158.22;;;2.95;88.20
16355;BME280;8287;51.644;8.494;2023-03-03T04:35:37;101160.81;;;3.07;88.21
16355;BME280;8287;51.644;8.494;2023-03-03T04:38:03;101166.38;;;3.10;88.38
16355;BME280;8287;51.644;8.494;2023-03-03T04:40:30;101157.91;;;3.19;87.58
16355;BME280;8287;51.644;8.494;2023-03-03T04:42:58;101160.38;;;3.26;87.07
16355;BME280;8287;51.644;8.494;2023-03-03T04:45:25;101152.53;;;3.26;87.34
16355;BME280;8287;51.644;8.494;2023-03-03T04:47:52;101156.56;;;3.33;86.84
16355;BME280;8287;51.644;8.494;2023-03-03T04:50:18;101163.38;;;3.18;86.75
16355;BME280;8287;51.644;8.494;2023-03-03T04:52:45;101172.69;;;2.98;87.56
16355;BME280;8287;51.644;8.494;2023-03-03T04:55:12;101175.25;;;3.09;87.58
16355;BME280;8287;51.644;8.494;2023-03-03T04:57:41;101175.34;;;3.14;87.67
16355;BME280;8287;51.644;8.494;2023-03-03T05:00:11;101175.09;;;3.15;87.25
16355;BME280;8287;51.644;8.494;2023-03-03T05:02:38;101174.78;;;3.12;87.48
16355;BME280;8287;51.644;8.494;2023-03-03T05:05:06;101178.06;;;3.19;87.70
16355;BME280;8287;51.644;8.494;2023-03-03T05:07:34;101175.44;;;3.19;87.21
16355;BME280;8287;51.644;8.494;2023-03-03T05:10:01;101176.25;;;3.19;87.55
16355;BME280;8287;51.644;8.494;2023-03-03T05:12:27;101171.44;;;3.00;87.46
16355;BME280;8287;51.644;8.494;2023-03-03T05:14:54;101176.63;;;3.12;87.60
16355;BME280;8287;51.644;8.494;2023-03-03T05:17:22;101182.34;;;2.97;87.79
16355;BME280;8287;51.644;8.494;2023-03-03T05:19:49;101177.38;;;2.96;88.37
16355;BME280;8287;51.644;8.494;2023-03-03T05:22:16;101168.56;;;3.02;88.39
16355;BME280;8287;51.644;8.494;2023-03-03T05:24:42;101179.94;;;3.07;87.91
16355;BME280;8287;51.644;8.494;2023-03-03T05:27:13;101177.22;;;3.02;87.72
16355;BME280;8287;51.644;8.494;2023-03-03T05:29:40;101181.03;;;2.83;88.23
16355;BME280;8287;51.644;8.494;2023-03-03T05:32:06;101176.03;;;2.82;88.64
16355;BME280;8287;51.644;8.494;2023-03-03T05:34:34;101172.81;;;2.91;88.84
16355;BME280;8287;51.644;8.494;2023-03-03T05:37:01;101175.53;;;2.96;88.74
16355;BME280;8287;51.644;8.494;2023-03-03T05:39:31;101177.44;;;3.01;88.78
16355;BME280;8287;51.644;8.494;2023-03-03T05:41:57;101168.75;;;3.12;88.13
16355;BME280;8287;51.644;8.494;2023-03-03T05:44:24;101179.84;;;3.02;88.00
16355;BME280;8287;51.644;8.494;2023-03-03T05:46:51;101172.97;;;3.13;88.22
16355;BME280;8287;51.644;8.494;2023-03-03T05:49:18;101178.59;;;3.21;87.65
16355;BME280;8287;51.644;8.494;2023-03-03T05:51:46;101174.59;;;3.02;87.58
16355;BME280;8287;51.644;8.494;2023-03-03T05:54:12;101185.44;;;2.94;88.14
16355;BME280;8287;51.644;8.494;2023-03-03T05:56:39;101186.22;;;3.06;88.32
16355;BME280;8287;51.644;8.494;2023-03-03T05:59:06;101191.13;;;3.03;88.69
16355;BME280;8287;51.644;8.494;2023-03-03T06:01:33;101193.47;;;3.04;88.37
16355;BME280;8287;51.644;8.494;2023-03-03T06:03:59;101208.53;;;3.25;87.86
16355;BME280;8287;51.644;8.494;2023-03-03T06:06:26;101204.78;;;3.21;87.16
16355;BME280;8287;51.644;8.494;2023-03-03T06:08:54;101210.63;;;3.23;87.49
16355;BME280;8287;51.644;8.494;2023-03-03T06:11:21;101201.72;;;3.24;87.43
16355;BME280;8287;51.644;8.494;2023-03-03T06:13:47;101208.16;;;3.33;87.12
16355;BME280;8287;51.644;8.494;2023-03-03T06:16:14;101214.88;;;3.29;87.18
16355;BME280;8287;51.644;8.494;2023-03-03T06:18:41;101209.59;;;3.24;87.43
16355;BME280;8287;51.644;8.494;2023-03-03T06:21:07;101216.47;;;3.30;87.20
16355;BME280;8287;51.644;8.494;2023-03-03T06:23:34;101220.69;;;3.31;86.98
16355;BME280;8287;51.644;8.494;2023-03-03T06:26:02;101213.31;;;3.28;87.13
16355;BME280;8287;51.644;8.494;2023-03-03T06:28:29;101213.63;;;3.31;87.10
16355;BME280;8287;51.644;8.494;2023-03-03T06:30:56;101215.59;;;3.24;86.98
16355;BME280;8287;51.644;8.494;2023-03-03T06:33:22;101219.72;;;3.20;87.26
16355;BME280;8287;51.644;8.494;2023-03-03T06:35:49;101217.63;;;3.34;86.86
16355;BME280;8287;51.644;8.494;2023-03-03T06:38:16;101204.75;;;3.32;86.82
16355;BME280;8287;51.644;8.494;2023-03-03T06:40:43;101217.38;;;3.35;86.86
16355;BME280;8287;51.644;8.494;2023-03-03T06:43:11;101221.44;;;3.43;86.37
16355;BME280;8287;51.644;8.494;2023-03-03T06:45:38;101212.00;;;3.42;86.05
16355;BME280;8287;51.644;8.494;2023-03-03T06:48:05;101216.69;;;3.40;86.54
16355;BME280;8287;51.644;8.494;2023-03-03T06:50:32;101229.56;;;3.30;86.62
16355;BME280;8287;51.644;8.494;2023-03-03T06:53:03;101222.84;;;3.34;87.17
16355;BME280;8287;51.644;8.494;2023-03-03T06:55:30;101230.72;;;3.34;86.57
16355;BME280;8287;51.644;8.494;2023-03-03T06:57:58;101234.63;;;3.20;86.97
16355;BME280;8287;51.644;8.494;2023-03-03T07:00:26;101236.69;;;3.18;87.51
16355;BME280;8287;51.644;8.494;2023-03-03T07:02:58;101234.19;;;3.23;87.11
16355;BME280;8287;51.644;8.494;2023-03-03T07:05:26;101245.91;;;3.20;87.43
16355;BME280;8287;51.644;8.494;2023-03-03T07:07:54;101242.09;;;3.28;87.34
16355;BME280;8287;51.644;8.494;2023-03-03T07:10:23;101241.41;;;3.32;87.49
16355;BME280;8287;51.644;8.494;2023-03-03T07:12:50;101240.03;;;3.30;87.17
16355;BME280;8287;51.644;8.494;2023-03-03T07:15:20;101246.56;;;3.27;87.10
16355;BME280;8287;51.644;8.494;2023-03-03T07:17:54;101248.19;;;3.17;87.13
16355;BME280;8287;51.644;8.494;2023-03-03T07:20:24;101257.06;;;3.16;87.88
16355;BME280;8287;51.644;8.494;2023-03-03T07:22:53;101258.22;;;3.08;87.89
16355;BME280;8287;51.644;8.494;2023-03-03T07:25:26;101265.72;;;3.16;87.91
16355;BME280;8287;51.644;8.494;2023-03-03T07:27:55;101268.63;;;3.31;87.85
16355;BME280;8287;51.644;8.494;2023-03-03T07:30:25;101255.97;;;3.40;87.10
16355;BME280;8287;51.644;8.494;2023-03-03T07:32:54;101266.91;;;3.37;86.29
16355;BME280;8287;51.644;8.494;2023-03-03T07:35:46;101267.69;;;3.37;86.54
16355;BME280;8287;51.644;8.494;2023-03-03T07:38:22;101267.69;;;3.37;86.47
16355;BME280;8287;51.644;8.494;2023-03-03T07:40:51;101266.22;;;3.30;86.59
16355;BME280;8287;51.644;8.494;2023-03-03T07:43:37;101265.97;;;3.43;86.80
16355;BME280;8287;51.644;8.494;2023-03-03T07:46:29;101273.94;;;3.48;86.73
16355;BME280;8287;51.644;8.494;2023-03-03T07:49:11;101285.19;;;3.48;86.33
16355;BME280;8287;51.644;8.494;2023-03-03T07:51:41;101287.84;;;3.37;86.32
16355;BME280;8287;51.644;8.494;2023-03-03T07:54:16;101284.63;;;3.46;86.62
16355;BME280;8287;51.644;8.494;2023-03-03T07:56:45;101293.28;;;3.47;85.84
16355;BME280;8287;51.644;8.494;2023-03-03T07:59:19;101298.41;;;3.53;86.53
16355;BME280;8287;51.644;8.494;2023-03-03T08:01:50;101299.81;;;3.61;86.42
16355;BME280;8287;51.644;8.494;2023-03-03T08:04:22;101301.91;;;3.59;85.88
16355;BME280;8287;51.644;8.494;2023-03-03T08:06:52;101311.94;;;3.50;85.60
16355;BME280;8287;51.644;8.494;2023-03-03T08:09:35;101313.13;;;3.43;86.28
16355;BME280;8287;51.644;8.494;2023-03-03T08:15:11;101316.16;;;3.51;85.54
16355;BME280;8287;51.644;8.494;2023-03-03T08:17:42;101311.91;;;3.62;85.01
16355;BME280;8287;51.644;8.494;2023-03-03T08:23:17;101308.91;;;3.42;84.96
16355;BME280;8287;51.644;8.494;2023-03-03T08:25:46;101316.78;;;3.42;85.60
16355;BME280;8287;51.644;8.494;2023-03-03T08:28:13;101311.06;;;3.45;84.88
16355;BME280;8287;51.644;8.494;2023-03-03T08:30:41;101312.63;;;3.46;84.82
16355;BME280;8287;51.644;8.494;2023-03-03T08:33:08;101305.56;;;3.58;84.67
16355;BME280;8287;51.644;8.494;2023-03-03T08:35:35;101303.66;;;3.70;84.08
16355;BME280;8287;51.644;8.494;2023-03-03T08:38:02;101307.09;;;3.70;83.75
16355;BME280;8287;51.644;8.494;2023-03-03T08:40:31;101305.56;;;3.74;83.75
16355;BME280;8287;51.644;8.494;2023-03-03T08:42:57;101303.06;;;3.79;83.85
16355;BME280;8287;51.644;8.494;2023-03-03T08:45:25;101296.28;;;3.83;83.55
16355;BME280;8287;51.644;8.494;2023-03-03T08:47:52;101294.75;;;3.71;83.63
16355;BME280;8287;51.644;8.494;2023-03-03T08:50:19;101299.06;;;3.77;84.14
16355;BME280;8287;51.644;8.494;2023-03-03T08:52:46;101305.63;;;3.91;83.91
16355;BME280;8287;51.644;8.494;2023-03-03T08:55:13;101305.28;;;3.87;83.17
16355;BME280;8287;51.644;8.494;2023-03-03T08:57:41;101306.72;;;3.95;83.37
16355;BME280;8287;51.644;8.494;2023-03-03T09:00:11;101319.34;;;3.98;83.79
16355;BME280;8287;51.644;8.494;2023-03-03T09:02:38;101315.78;;;4.04;83.08
16355;BME280;8287;51.644;8.494;2023-03-03T09:05:06;101315.25;;;4.02;82.54
16355;BME280;8287;51.644;8.494;2023-03-03T09:07:33;101320.88;;;4.10;82.81
16355;BME280;8287;51.644;8.494;2023-03-03T09:09:59;101323.03;;;4.13;81.46
16355;BME280;8287;51.644;8.494;2023-03-03T09:12:29;101329.66;;;4.16;82.05
16355;BME280;8287;51.644;8.494;2023-03-03T09:14:59;101333.69;;;4.23;81.44
16355;BME280;8287;51.644;8.494;2023-03-03T09:17:33;101328.94;;;4.20;81.79
16355;BME280;8287;51.644;8.494;2023-03-03T09:20:16;101323.19;;;4.23;81.52
16355;BME280;8287;51.644;8.494;2023-03-03T09:22:47;101329.97;;;4.36;81.40
16355;BME280;8287;51.644;8.494;2023-03-03T09:25:22;101329.66;;;4.32;80.67
16355;BME280;8287;51.644;8.494;2023-03-03T09:27:52;101331.47;;;4.15;81.25
16355;BME280;8287;51.644;8.494;2023-03-03T09:30:35;101333.91;;;4.22;81.27
16355;BME280;8287;51.644;8.494;2023-03-03T09:33:20;101327.25;;;4.31;81.18
16355;BME280;8287;51.644;8.494;2023-03-03T09:35:50;101334.72;;;4.39;81.15
16355;BME280;8287;51.644;8.494;2023-03-03T09:38:25;101336.53;;;4.22;80.46
16355;BME280;8287;51.644;8.494;2023-03-03T09:43:48;101338.94;;;4.40;80.60
16355;BME280;8287;51.644;8.494;2023-03-03T09:46:25;101332.03;;;4.50;80.72
16355;BME280;8287;51.644;8.494;2023-03-03T09:49:02;101345.06;;;4.45;80.81
16355;BME280;8287;51.644;8.494;2023-03-03T09:51:48;101343.88;;;4.53;80.24
16355;BME280;8287;51.644;8.494;2023-03-03T09:54:26;101341.41;;;4.63;80.40
16355;BME280;8287;51.644;8.494;2023-03-03T09:57:03;101340.31;;;4.59;80.17
16355;BME280;8287;51.644;8.494;2023-03-03T09:59:48;101348.56;;;4.67;80.20
16355;BME280;8287;51.644;8.494;2023-03-03T10:02:32;101347.91;;;4.77;79.99
16355;BME280;8287;51.644;8.494;2023-03-03T10:05:12;101348.72;;;4.61;79.89
16355;BME280;8287;51.644;8.494;2023-03-03T10:07:49;101344.09;;;4.68;80.00
16355;BME280;8287;51.644;8.494;2023-03-03T10:10:45;101348.47;;;4.79;79.71
16355;BME280;8287;51.644;8.494;2023-03-03T10:13:22;101345.81;;;4.95;79.27
16355;BME280;8287;51.644;8.494;2023-03-03T10:16:06;101342.22;;;4.30;78.06
16355;BME280;8287;51.644;8.494;2023-03-03T10:18:38;101347.22;;;4.32;79.89
16355;BME280;8287;51.644;8.494;2023-03-03T10:21:16;101355.38;;;4.68;79.06
16355;BME280;8287;51.644;8.494;2023-03-03T10:23:54;101360.00;;;4.78;78.51
16355;BME280;8287;51.644;8.494;2023-03-03T10:26:34;101348.28;;;4.85;77.89
16355;BME280;8287;51.644;8.494;2023-03-03T10:29:16;101352.75;;;4.85;77.07
16355;BME280;8287;51.644;8.494;2023-03-03T10:32:01;101352.22;;;4.83;77.08
16355;BME280;8287;51.644;8.494;2023-03-03T10:35:00;101357.91;;;4.80;77.16
16355;BME280;8287;51.644;8.494;2023-03-03T10:37:32;101351.53;;;4.92;77.19
16355;BME280;8287;51.644;8.494;2023-03-03T10:40:15;101355.69;;;4.88;77.19
16355;BME280;8287;51.644;8.494;2023-03-03T10:43:02;101353.75;;;5.00;76.88
16355;BME280;8287;51.644;8.494;2023-03-03T10:45:50;101355.28;;;4.96;76.55
16355;BME280;8287;51.644;8.494;2023-03-03T10:48:37;101360.28;;;4.98;76.38
16355;BME280;8287;51.644;8.494;2023-03-03T10:51:18;101366.34;;;4.82;76.41
16355;BME280;8287;51.644;8.494;2023-03-03T10:53:58;101367.16;;;4.99;76.93
16355;BME280;8287;51.644;8.494;2023-03-03T10:56:37;101365.19;;;5.11;76.82
16355;BME280;8287;51.644;8.494;2023-03-03T10:59:18;101365.38;;;4.88;77.81
16355;BME280;8287;51.644;8.494;2023-03-03T11:01:51;101366.53;;;4.59;76.75
16355;BME280;8287;51.644;8.494;2023-03-03T11:04:51;101372.66;;;3.87;80.02
16355;BME280;8287;51.644;8.494;2023-03-03T11:07:26;101371.06;;;4.30;80.91
16355;BME280;8287;51.644;8.494;2023-03-03T11:10:07;101371.31;;;4.62;80.33
16355;BME280;8287;51.644;8.494;2023-03-03T11:12:45;101364.13;;;4.90;79.14
16355;BME280;8287;51.644;8.494;2023-03-03T11:15:29;101359.97;;;4.94;78.81
16355;BME280;8287;51.644;8.494;2023-03-03T11:18:11;101368.66;;;5.33;78.49
16355;BME280;8287;51.644;8.494;2023-03-03T11:20:43;101367.50;;;5.45;77.54
16355;BME280;8287;51.644;8.494;2023-03-03T11:23:26;101359.88;;;5.49;76.91
16355;BME280;8287;51.644;8.494;2023-03-03T11:26:08;101357.88;;;5.56;76.34
16355;BME280;8287;51.644;8.494;2023-03-03T11:28:45;101359.09;;;5.70;76.08
16355;BME280;8287;51.644;8.494;2023-03-03T11:31:20;101349.53;;;5.64;75.04
16355;BME280;8287;51.644;8.494;2023-03-03T11:33:58;101349.44;;;5.54;74.20
16355;BME280;8287;51.644;8.494;2023-03-03T11:36:31;101350.41;;;5.48;74.24
16355;BME280;8287;51.644;8.494;2023-03-03T11:39:03;101346.69;;;5.22;74.93
16355;BME280;8287;51.644;8.494;2023-03-03T11:41:33;101352.25;;;5.26;74.57
16355;BME280;8287;51.644;8.494;2023-03-03T11:44:12;101353.88;;;5.10;76.10
16355;BME280;8287;51.644;8.494;2023-03-03T11:46:45;101345.84;;;5.17;75.75
16355;BME280;8287;51.644;8.494;2023-03-03T11:49:18;101348.94;;;5.57;76.17
16355;BME280;8287;51.644;8.494;2023-03-03T11:51:52;101342.47;;;5.64;75.00
16355;BME280;8287;51.644;8.494;2023-03-03T11:54:26;101339.44;;;5.77;75.03
16355;BME280;8287;51.644;8.494;2023-03-03T11:56:59;101340.72;;;5.96;74.12
16355;BME280;8287;51.644;8.494;2023-03-03T11:59:43;101332.44;;;5.83;74.00
16355;BME280;8287;51.644;8.494;2023-03-03T12:02:33;101330.97;;;5.92;72.49
16355;BME280;8287;51.644;8.494;2023-03-03T12:05:07;101333.47;;;6.08;72.83
16355;BME280;8287;51.644;8.494;2023-03-03T12:07:41;101332.03;;;6.27;72.62
16355;BME280;8287;51.644;8.494;2023-03-03T12:10:18;101331.13;;;6.12;71.68
16355;BME280;8287;51.644;8.494;2023-03-03T12:12:51;101323.47;;;6.10;72.18
16355;BME280;8287;51.644;8.494;2023-03-03T12:15:26;101328.56;;;5.90;70.99
16355;BME280;8287;51.644;8.494;2023-03-03T12:18:30;101324.81;;;6.13;71.98
16355;BME280;8287;51.644;8.494;2023-03-03T12:21:10;101318.09;;;6.27;70.82
16355;BME280;8287;51.644;8.494;2023-03-03T12:23:52;101319.72;;;6.32;70.22
16355;BME280;8287;51.644;8.494;2023-03-03T12:26:30;101315.00;;;6.35;70.87
16355;BME280;8287;51.644;8.494;2023-03-03T12:29:05;101312.38;;;6.35;71.50
16355;BME280;8287;51.644;8.494;2023-03-03T12:31:40;101316.13;;;6.43;71.90
16355;BME280;8287;51.644;8.494;2023-03-03T12:34:14;101309.81;;;6.44;71.65
16355;BME280;8287;51.644;8.494;2023-03-03T12:37:11;101300.94;;;6.55;71.58
16355;BME280;8287;51.644;8.494;2023-03-03T12:39:49;101294.88;;;6.55;70.95
16355;BME280;8287;51.644;8.494;2023-03-03T12:42:29;101302.03;;;6.59;71.47
16355;BME280;8287;51.644;8.494;2023-03-03T12:45:08;101299.75;;;6.73;71.86
16355;BME280;8287;51.644;8.494;2023-03-03T12:47:45;101296.25;;;6.62;71.11
16355;BME280;8287;51.644;8.494;2023-03-03T12:50:23;101296.13;;;6.43;71.03
16355;BME280;8287;51.644;8.494;2023-03-03T12:53:00;101296.19;;;6.52;71.05
16355;BME280;8287;51.644;8.494;2023-03-03T12:55:36;101300.75;;;6.26;71.09
16355;BME280;8287;51.644;8.494;2023-03-03T12:58:18;101301.44;;;6.52;71.28
16355;BME280;8287;51.644;8.494;2023-03-03T13:00:53;101295.25;;;6.01;72.28
16355;BME280;8287;51.644;8.494;2023-03-03T13:03:34;101298.19;;;6.40;70.94
16355;BME280;8287;51.644;8.494;2023-03-03T13:06:10;101303.56;;;6.50;70.78
16355;BME280;8287;51.644;8.494;2023-03-03T13:08:53;101297.47;;;6.50;70.84
16355;BME280;8287;51.644;8.494;2023-03-03T13:11:38;101293.41;;;6.74;71.19
16355;BME280;8287;51.644;8.494;2023-03-03T13:14:16;101299.03;;;6.87;70.50
16355;BME280;8287;51.644;8.494;2023-03-03T13:17:00;101289.09;;;6.58;71.17
16355;BME280;8287;51.644;8.494;2023-03-03T13:19:31;101285.81;;;6.77;70.60
16355;BME280;8287;51.644;8.494;2023-03-03T13:22:07;101287.66;;;6.82;69.63
16355;BME280;8287;51.644;8.494;2023-03-03T13:24:38;101292.47;;;6.90;70.16
16355;BME280;8287;51.644;8.494;2023-03-03T13:27:12;101288.44;;;6.77;69.96
16355;BME280;8287;51.644;8.494;2023-03-03T13:29:42;101276.84;;;6.78;70.00
16355;BME280;8287;51.644;8.494;2023-03-03T13:32:12;101283.16;;;6.77;69.29
16355;BME280;8287;51.644;8.494;2023-03-03T13:34:47;101286.34;;;6.79;69.72
16355;BME280;8287;51.644;8.494;2023-03-03T13:37:20;101285.75;;;6.72;69.69
16355;BME280;8287;51.644;8.494;2023-03-03T13:39:54;101274.94;;;6.69;69.75
16355;BME280;8287;51.644;8.494;2023-03-03T13:42:25;101277.84;;;6.67;69.64
16355;BME280;8287;51.644;8.494;2023-03-03T13:44:55;101281.78;;;6.70;69.71